Time;durP1;ratioP1;P1;durP2;ratioP2;P2;SDS_P1;SDS_P2;PMS_P1;PMS_P2;Temp;Humidity;BMP_temperature;BMP_pressure;BME280_temperature;BME280_humidity;BME280_pressure;Samples;Min_cycle;Max_cycle;Signal;HPM_P1;HPM_P2
2022/08/22 03:50:59;;;;;;;6.95;4.53;;;;;;;20.77;95.52;99706.63;5606719;31;76893;-57
2022/08/22 03:54:13;;;;;;;4.60;4.05;;;;;;;20.77;95.52;99706.63;5583980;31;33382;-56
2022/08/22 03:57:48;;;;;;;7.07;3.72;;;;;;;20.33;97.84;99709.72;5583903;32;33626;-56
2022/08/22 04:01:06;;;;;;;6.70;3.40;;;;;;;20.34;98.52;99712.09;5583875;31;34291;-56
2022/08/22 04:04:30;;;;;;;3.92;3.12;;;;;;;20.41;97.97;99717.66;5583947;32;33508;-57
2022/08/22 04:07:50;;;;;;;4.82;3.60;;;;;;;20.47;98.08;99718.16;5583718;31;35177;-56
2022/08/22 04:11:16;;;;;;;7.28;3.60;;;;;;;20.52;98.65;99711.66;5583461;32;33559;-57
2022/08/22 04:14:37;;;;;;;5.37;3.70;;;;;;;20.67;96.45;99716.19;5584002;32;34247;-57
2022/08/22 04:17:47;;;;;;;5.28;3.45;;;;;;;20.78;95.48;99719.87;5583761;32;34238;-56
2022/08/22 04:20:58;;;;;;;3.70;3.20;;;;;;;20.76;94.08;99724.09;5583614;32;33643;-56
2022/08/22 04:24:26;;;;;;;4.35;3.33;;;;;;;20.72;93.40;99720.53;5583647;32;34310;-57
2022/08/22 04:27:54;;;;;;;5.85;3.33;;;;;;;20.69;94.41;99718.53;5575352;31;33637;-57
2022/08/22 04:31:12;;;;;;;5.40;3.40;;;;;;;20.62;95.54;99719.22;5583520;32;33626;-56
2022/08/22 04:34:23;;;;;;;4.32;3.17;;;;;;;20.68;94.99;99725.94;5583590;31;33652;-56
2022/08/22 04:37:45;;;;;;;4.70;3.70;;;;;;;20.69;94.84;99732.16;5583487;31;34320;-56
2022/08/22 04:40:54;;;;;;;6.00;3.35;;;;;;;20.86;93.87;99729.75;5583594;31;33693;-57
2022/08/22 04:44:04;;;;;;;7.78;4.55;;;;;;;20.91;93.25;99731.34;5583547;32;34403;-57
2022/08/22 04:47:48;;;;;;;7.18;3.40;;;;;;;20.80;94.98;99742.09;5572490;32;33637;-57
2022/08/22 04:51:05;;;;;;;5.87;3.47;;;;;;;20.70;95.61;99739.19;5563226;32;34241;-58
2022/08/22 04:54:23;;;;;;;5.93;3.47;;;;;;;20.74;95.43;99737.31;5574866;31;33340;-57
2022/08/22 04:57:47;;;;;;;5.40;3.60;;;;;;;20.85;93.93;99736.31;5579415;31;33761;-56
2022/08/22 05:01:03;;;;;;;4.65;3.10;;;;;;;20.76;95.36;99743.97;5566072;32;33601;-56
2022/08/22 05:04:11;;;;;;;5.22;3.58;;;;;;;20.77;94.83;99745.53;5566754;32;33514;-56
2022/08/22 05:07:20;;;;;;;13.30;4.20;;;;;;;20.86;95.37;99743.38;5564048;32;33451;-56
2022/08/22 05:10:25;;;;;;;6.15;3.90;;;;;;;20.96;94.63;99738.44;5567190;32;34427;-57
2022/08/22 05:13:32;;;;;;;8.40;4.30;;;;;;;20.87;96.84;99741.41;5568900;32;33624;-57
2022/08/22 05:16:40;;;;;;;4.90;4.05;;;;;;;20.97;95.78;99751.69;5565417;32;33611;-57
2022/08/22 05:19:49;;;;;;;6.25;4.10;;;;;;;21.12;92.35;99745.31;5565126;32;33706;-57
2022/08/22 05:22:57;;;;;;;8.63;4.68;;;;;;;21.01;93.77;99741.63;5568273;32;33894;-56
2022/08/22 05:26:02;;;;;;;9.10;3.80;;;;;;;20.95;95.66;99755.94;5568618;32;34376;-56
2022/08/22 05:29:10;;;;;;;6.32;3.75;;;;;;;20.97;94.74;99759.88;5567635;32;34411;-57
2022/08/22 05:32:28;;;;;;;9.13;4.32;;;;;;;20.99;93.83;99759.50;5560415;32;34340;-57
2022/08/22 05:35:38;;;;;;;13.70;4.47;;;;;;;21.08;94.91;99757.31;5563077;32;33611;-56
2022/08/22 05:38:50;;;;;;;6.80;4.32;;;;;;;21.28;92.40;99763.44;5556577;32;33837;-56
2022/08/22 05:42:02;;;;;;;7.37;4.32;;;;;;;21.26;94.01;99769.28;5561297;32;34278;-56
2022/08/22 05:45:07;;;;;;;7.50;4.55;;;;;;;21.07;95.90;99770.16;5562794;32;33702;-56
2022/08/22 05:48:23;;;;;;;8.88;4.80;;;;;;;21.10;95.84;99779.53;5560717;32;34343;-56
2022/08/22 05:51:43;;;;;;;8.52;4.60;;;;;;;21.13;96.37;99770.63;5567873;32;33623;-56
2022/08/22 05:54:58;;;;;;;12.10;5.62;;;;;;;21.15;98.46;99773.75;5562705;32;33728;-56
2022/08/22 05:58:34;;;;;;;11.13;5.87;;;;;;;21.35;94.27;99775.25;5557145;32;33628;-57
2022/08/22 06:01:50;;;;;;;12.45;5.80;;;;;;;21.31;98.50;99776.34;5562391;32;33280;-56
2022/08/22 06:04:59;;;;;;;8.63;5.93;;;;;;;21.42;94.93;99781.97;5554489;32;33805;-57
2022/08/22 06:08:20;;;;;;;7.97;5.65;;;;;;;21.47;92.59;99787.13;5564625;32;33653;-56
2022/08/22 06:11:27;;;;;;;9.70;5.30;;;;;;;21.51;92.92;99779.78;5566923;32;33328;-57
2022/08/22 06:14:44;;;;;;;8.65;5.68;;;;;;;21.62;91.76;99796.28;5568716;32;33598;-57
2022/08/22 06:17:51;;;;;;;9.43;6.25;;;;;;;21.70;90.27;99782.38;5567632;32;34412;-56
2022/08/22 06:20:54;;;;;;;;;;;;;;;21.68;91.25;99792.09;5568484;32;34217;-57
2022/08/22 06:24:02;;;;;;;9.27;6.30;;;;;;;21.74;90.81;99794.13;5558544;32;33858;-57
2022/08/22 06:27:10;;;;;;;9.63;7.18;;;;;;;21.69;91.31;99796.38;5554595;32;34309;-56
2022/08/22 06:30:15;;;;;;;12.95;7.03;;;;;;;21.69;92.44;99786.28;5564281;32;33671;-57
2022/08/22 06:33:23;;;;;;;10.27;7.18;;;;;;;21.71;92.09;99792.12;5551101;32;33711;-57
2022/08/22 06:36:29;;;;;;;13.10;7.12;;;;;;;21.73;96.24;99797.22;5559345;32;33285;-57
2022/08/22 06:39:33;;;;;;;;;;;;;;;21.79;94.67;99795.75;5559585;32;33708;-56
2022/08/22 06:42:43;;;;;;;9.98;7.32;;;;;;;21.80;92.75;99806.28;5565284;32;34074;-57
2022/08/22 06:45:45;;;;;;;11.12;8.32;;;;;;;21.93;90.04;99801.41;5558189;32;34179;-57
2022/08/22 06:48:48;;;;;;;9.63;8.27;;;;;;;21.95;90.79;99801.00;5563366;31;33610;-57
2022/08/22 06:51:52;;;;;;;13.10;8.45;;;;;;;21.99;91.30;99804.59;5566784;32;34333;-57
2022/08/22 06:55:00;;;;;;;13.82;8.50;;;;;;;21.92;89.34;99799.81;5564797;32;33791;-57
2022/08/22 06:58:16;;;;;;;12.82;9.07;;;;;;;21.96;92.88;99800.66;5568094;32;34187;-57
2022/08/22 07:01:26;;;;;;;14.38;8.68;;;;;;;22.05;89.02;99792.97;5564365;32;34411;-57
2022/08/22 07:04:30;;;;;;;14.35;9.57;;;;;;;22.17;87.53;99802.87;5567062;32;33548;-57
2022/08/22 07:07:35;;;;;;;13.18;10.13;;;;;;;22.23;90.71;99798.66;5565284;32;34225;-57
2022/08/22 07:10:43;;;;;;;12.43;9.60;;;;;;;22.25;89.73;99801.81;5565935;32;33595;-57
2022/08/22 07:13:52;;;;;;;16.73;10.95;;;;;;;22.31;89.20;99799.50;5560838;32;34616;-57
2022/08/22 07:16:59;;;;;;;13.43;10.48;;;;;;;22.23;92.09;99800.59;5566642;32;34802;-57
2022/08/22 07:20:26;;;;;;;13.93;10.60;;;;;;;22.20;86.29;99809.53;5560813;32;34584;-57
2022/08/22 07:23:44;;;;;;;14.32;10.07;;;;;;;22.27;88.44;99815.84;5559758;32;33213;-57
2022/08/22 07:27:30;;;;;;;12.30;10.10;;;;;;;22.32;86.56;99816.69;5565917;32;33631;-57
2022/08/22 07:30:56;;;;;;;12.93;9.95;;;;;;;22.33;89.27;99815.53;5561242;32;34304;-57
2022/08/22 07:34:24;;;;;;;15.65;9.20;;;;;;;22.40;88.69;99810.16;5565988;32;33679;-57
2022/08/22 07:37:42;;;;;;;10.60;8.90;;;;;;;22.38;88.33;99810.50;5564510;32;33887;-57
2022/08/22 07:41:16;;;;;;;12.73;9.40;;;;;;;22.46;87.21;99812.16;5560304;32;33871;-56
2022/08/22 07:44:25;;;;;;;13.67;10.03;;;;;;;22.54;90.66;99820.44;5559096;32;33719;-56
2022/08/22 07:48:02;;;;;;;11.90;9.32;;;;;;;22.57;86.49;99817.75;5563724;32;34377;-57
2022/08/22 07:51:14;;;;;;;10.13;8.73;;;;;;;22.65;84.73;99811.22;5565344;32;34248;-57
2022/08/22 07:54:41;;;;;;;11.30;8.63;;;;;;;22.66;87.63;99814.72;5559335;32;34148;-57
2022/08/22 07:57:51;;;;;;;13.88;8.77;;;;;;;22.64;91.57;99826.00;5564954;32;34348;-57
2022/08/22 08:00:55;;;;;;;13.62;9.18;;;;;;;22.65;89.57;99821.31;5566734;32;32582;-57
2022/08/22 08:04:01;;;;;;;16.12;9.18;;;;;;;22.61;88.98;99821.28;5566073;32;33697;-57
2022/08/22 08:07:07;;;;;;;18.15;8.45;;;;;;;22.63;89.17;99826.41;5567174;32;34210;-57
2022/08/22 08:10:15;;;;;;;12.55;8.10;;;;;;;22.61;86.72;99824.03;5563871;32;33421;-57
2022/08/22 08:13:25;;;;;;;11.05;8.00;;;;;;;22.61;87.20;99823.25;5557645;32;33659;-56
2022/08/22 08:16:33;;;;;;;11.82;8.10;;;;;;;22.54;88.29;99826.69;5562444;32;33698;-57
2022/08/22 08:19:39;;;;;;;11.65;8.55;;;;;;;22.51;87.27;99827.44;5561348;32;33995;-57
2022/08/22 08:22:45;;;;;;;11.18;9.02;;;;;;;22.41;87.44;99830.84;5555644;32;34731;-57
2022/08/22 08:25:56;;;;;;;13.02;8.40;;;;;;;22.45;87.54;99828.91;5563004;32;33640;-57
2022/08/22 08:29:02;;;;;;;12.37;8.35;;;;;;;22.50;87.78;99840.31;5559942;32;33588;-57
2022/08/22 08:32:08;;;;;;;14.35;8.88;;;;;;;22.57;87.92;99838.81;5565714;32;33354;-57
2022/08/22 08:35:34;;;;;;;11.85;8.27;;;;;;;22.67;85.30;99833.44;5568092;32;33601;-57
2022/08/22 08:39:15;;;;;;;13.93;8.15;;;;;;;22.77;85.14;99826.53;5550583;32;33604;-57
2022/08/22 08:46:26;;;;;;;15.45;8.32;;;;;;;22.96;84.63;99820.09;5567608;32;33533;-56
2022/08/22 08:49:39;;;;;;;14.35;9.00;;;;;;;23.00;86.33;99822.84;5568396;32;34235;-57
2022/08/22 08:53:01;;;;;;;12.88;8.95;;;;;;;22.94;84.83;99822.41;5569531;32;33661;-57
2022/08/22 08:56:37;;;;;;;12.73;8.65;;;;;;;22.94;84.22;99827.88;5568524;32;33690;-56
2022/08/22 09:00:05;;;;;;;15.07;8.35;;;;;;;22.86;85.70;99827.00;5560036;32;33632;-57
2022/08/22 09:03:08;;;;;;;20.88;8.98;;;;;;;22.89;85.11;99826.25;5564466;31;33970;-57
2022/08/22 09:06:52;;;;;;;12.20;8.70;;;;;;;22.99;85.59;99827.53;5563622;32;33767;-57
2022/08/22 09:10:33;;;;;;;13.23;7.32;;;;;;;23.01;86.96;99825.19;5501361;32;34257;-57
2022/08/22 09:14:05;;;;;;;13.00;7.80;;;;;;;23.14;84.45;99828.44;5506269;32;34986;-57
2022/08/22 09:17:43;;;;;;;10.57;7.07;;;;;;;23.29;83.33;99819.19;5567939;32;33647;-57
2022/08/22 09:21:01;;;;;;;10.23;6.75;;;;;;;23.35;84.21;99827.84;5560013;32;33891;-57
2022/08/22 09:24:21;;;;;;;11.32;6.68;;;;;;;23.39;82.78;99821.22;5566659;32;33610;-57
2022/08/22 09:27:34;;;;;;;17.62;7.15;;;;;;;23.56;79.58;99824.44;5568024;32;33615;-57
2022/08/22 09:31:28;;;;;;;13.07;7.25;;;;;;;23.61;82.10;99826.84;5559770;32;33428;-57
2022/08/22 09:35:00;;;;;;;18.90;7.87;;;;;;;23.61;79.44;99830.34;5567024;32;33675;-57
2022/08/22 09:38:02;;;;;;;12.68;7.72;;;;;;;23.68;78.38;99824.16;5567487;32;34372;-57
2022/08/22 09:41:26;;;;;;;12.30;7.30;;;;;;;23.71;77.61;99822.59;5568422;32;34406;-57
2022/08/22 09:44:57;;;;;;;10.23;7.60;;;;;;;23.71;75.89;99819.88;5567506;32;33262;-57
2022/08/22 09:48:17;;;;;;;12.98;7.72;;;;;;;23.74;79.40;99827.31;5546711;31;33783;-57
2022/08/22 09:51:52;;;;;;;10.73;7.72;;;;;;;23.76;79.16;99833.97;5566902;32;34460;-57
2022/08/22 09:55:35;;;;;;;13.05;7.95;;;;;;;23.73;82.50;99831.22;5565817;32;33665;-57
2022/08/22 09:59:10;;;;;;;11.25;7.93;;;;;;;23.69;84.85;99833.94;5558588;32;34480;-57
2022/08/22 10:02:21;;;;;;;9.52;7.50;;;;;;;23.67;83.16;99834.31;5548596;32;34231;-57
2022/08/22 10:05:41;;;;;;;10.07;7.12;;;;;;;23.70;80.79;99835.50;5562899;32;33788;-57
2022/08/22 10:09:11;;;;;;;9.65;6.90;;;;;;;23.69;81.57;99833.94;5565198;32;34364;-57
2022/08/22 10:12:19;;;;;;;12.77;8.48;;;;;;;23.68;83.76;99835.91;5564841;32;34368;-57
2022/08/22 10:15:40;;;;;;;11.18;7.75;;;;;;;23.73;82.45;99842.94;5562638;32;33670;-57
2022/08/22 10:19:09;;;;;;;13.45;7.93;;;;;;;23.78;81.54;99848.06;5566975;32;33007;-57
2022/08/22 10:22:28;;;;;;;10.68;8.60;;;;;;;23.86;83.52;99837.94;5564551;32;33931;-58
2022/08/22 10:26:00;;;;;;;15.15;8.82;;;;;;;23.86;81.04;99837.94;5562581;32;33663;-57
2022/08/22 10:29:48;;;;;;;10.20;7.62;;;;;;;23.95;80.65;99845.81;5567530;32;34344;-54
2022/08/22 10:33:09;;;;;;;11.00;7.40;;;;;;;23.92;79.20;99842.66;5565933;32;34343;-54
2022/08/22 10:36:26;;;;;;;12.48;7.55;;;;;;;23.98;78.29;99842.31;5563501;32;33505;-54
2022/08/22 10:39:51;;;;;;;;;;;;;;;24.07;77.45;99849.00;5560514;32;33203;-55
2022/08/22 10:43:13;;;;;;;;;;;;;;;23.99;77.00;99839.19;5561156;32;33287;-54
2022/08/22 10:46:23;;;;;;;12.85;8.50;;;;;;;24.09;75.80;99834.91;5560092;32;33933;-55
2022/08/22 10:49:34;;;;;;;15.50;7.43;;;;;;;24.14;77.20;99837.31;5559823;32;33749;-54
2022/08/22 10:52:48;;;;;;;12.70;9.07;;;;;;;24.23;76.79;99842.41;5561020;32;34419;-55
2022/08/22 10:55:57;;;;;;;12.50;8.73;;;;;;;24.34;75.28;99833.06;5561241;32;33751;-54
2022/08/22 10:59:04;;;;;;;9.55;7.82;;;;;;;24.27;74.60;99833.06;5566511;32;34329;-54
2022/08/22 11:02:29;;;;;;;16.62;8.75;;;;;;;24.28;76.05;99828.34;5567070;32;33808;-54
2022/08/22 11:05:41;;;;;;;12.02;8.35;;;;;;;24.36;74.33;99829.94;5568147;32;33731;-54
2022/08/22 11:09:02;;;;;;;10.13;8.07;;;;;;;24.44;70.60;99826.09;5568426;32;34995;-55
2022/08/22 11:12:18;;;;;;;11.10;8.25;;;;;;;24.43;72.31;99829.97;5568675;32;34438;-54
2022/08/22 11:15:53;;;;;;;12.15;8.50;;;;;;;24.51;71.41;99828.84;5567956;32;33664;-54
2022/08/22 11:19:22;;;;;;;11.00;8.43;;;;;;;24.50;73.81;99821.00;5568806;32;33723;-54
2022/08/22 11:22:33;;;;;;;13.35;8.75;;;;;;;24.48;74.71;99829.62;5565478;32;33688;-54
2022/08/22 11:25:52;;;;;;;11.38;8.10;;;;;;;24.55;71.84;99831.59;5563916;32;33609;-54
2022/08/22 11:29:03;;;;;;;10.95;8.20;;;;;;;24.49;71.97;99833.91;5568672;32;34440;-54
2022/08/22 11:32:27;;;;;;;12.93;7.55;;;;;;;24.44;69.67;99830.78;5566997;32;33648;-54
2022/08/22 11:35:40;;;;;;;15.57;8.07;;;;;;;24.43;70.12;99821.75;5568723;32;34396;-54
2022/08/22 11:38:58;;;;;;;9.82;7.50;;;;;;;24.58;71.95;99819.84;5568954;32;33456;-55
2022/08/22 11:42:12;;;;;;;11.52;8.98;;;;;;;24.63;73.64;99824.16;5565979;32;33655;-54
2022/08/22 11:45:20;;;;;;;9.55;7.47;;;;;;;24.68;73.15;99821.81;5568193;32;33788;-54
2022/08/22 11:48:34;;;;;;;9.57;7.47;;;;;;;24.77;71.35;99819.50;5567098;32;34483;-54
2022/08/22 11:51:56;;;;;;;9.73;7.68;;;;;;;24.80;69.75;99815.16;5557664;32;33802;-54
2022/08/22 11:55:31;;;;;;;9.57;7.82;;;;;;;24.95;69.08;99805.00;5558691;32;34444;-54
2022/08/22 11:59:01;;;;;;;10.35;7.68;;;;;;;25.02;66.08;99800.31;5558251;32;33611;-54
2022/08/22 12:02:10;;;;;;;12.37;9.27;;;;;;;25.04;68.00;99810.91;5559038;32;33764;-55
2022/08/22 12:05:25;;;;;;;9.82;7.82;;;;;;;25.08;67.59;99803.44;5554604;32;33595;-55
2022/08/22 12:08:27;;;;;;;11.30;8.30;;;;;;;25.11;69.81;99799.91;5548515;32;33751;-54
2022/08/22 12:11:52;;;;;;;10.80;8.30;;;;;;;25.16;69.40;99796.00;5550048;32;33500;-55
2022/08/22 12:15:18;;;;;;;9.07;7.93;;;;;;;25.16;65.12;99794.06;5568662;32;34569;-54
2022/08/22 12:18:32;;;;;;;17.95;8.27;;;;;;;25.25;65.59;99796.41;5570435;32;33794;-55
2022/08/22 12:21:51;;;;;;;10.48;8.07;;;;;;;25.27;67.01;99797.59;5570810;32;33443;-55
2022/08/22 12:25:27;;;;;;;12.50;8.60;;;;;;;25.27;65.84;99794.84;5561017;32;34014;-54
2022/08/22 12:28:51;;;;;;;10.65;7.82;;;;;;;25.14;66.52;99792.91;5505527;31;33719;-55
2022/08/22 12:32:21;;;;;;;9.77;8.00;;;;;;;25.12;68.04;99795.25;5561129;32;34067;-54
2022/08/22 12:36:06;;;;;;;9.90;7.60;;;;;;;25.09;69.52;99797.56;5551117;32;34522;-54
2022/08/22 12:39:18;;;;;;;11.07;8.13;;;;;;;25.15;69.20;99788.97;5550963;32;34391;-54
2022/08/22 12:42:24;;;;;;;11.02;8.43;;;;;;;25.06;68.32;99792.84;5551204;32;34347;-54
2022/08/22 12:45:32;;;;;;;14.98;9.30;;;;;;;25.09;69.92;99788.53;5550977;32;33765;-55
2022/08/22 12:48:34;;;;;;;12.77;8.82;;;;;;;25.10;68.39;99784.66;5550736;32;33754;-55
2022/08/22 12:51:58;;;;;;;14.00;9.27;;;;;;;25.09;68.64;99786.59;5550870;32;33764;-54
2022/08/22 12:55:20;;;;;;;17.60;10.70;;;;;;;25.02;69.83;99789.34;5550657;32;33804;-54
2022/08/22 12:59:07;;;;;;;16.48;9.60;;;;;;;25.03;70.57;99788.19;5550397;32;33598;-54
2022/08/22 13:02:22;;;;;;;12.53;9.30;;;;;;;24.94;69.47;99796.00;5544838;32;34294;-54
2022/08/22 13:05:27;;;;;;;19.05;10.77;;;;;;;25.01;71.46;99801.47;5550752;32;33738;-55
2022/08/22 13:08:34;;;;;;;12.48;9.13;;;;;;;24.75;74.05;99802.66;5550577;32;33242;-54
2022/08/22 13:11:39;;;;;;;13.23;9.23;;;;;;;24.77;74.60;99805.78;5549221;32;33649;-55
2022/08/22 13:14:44;;;;;;;15.98;8.52;;;;;;;24.85;74.18;99806.56;5550313;32;34150;-54
2022/08/22 13:17:51;;;;;;;9.75;8.05;;;;;;;24.82;74.49;99802.66;5550636;32;33921;-54
2022/08/22 13:20:57;;;;;;;9.32;7.72;;;;;;;24.93;72.75;99802.66;5550245;32;34219;-54
2022/08/22 13:24:08;;;;;;;13.05;8.23;;;;;;;25.00;73.04;99810.09;5550375;32;34351;-54
2022/08/22 13:27:19;;;;;;;14.25;8.48;;;;;;;25.02;73.19;99810.50;5550522;32;34368;-54
2022/08/22 13:30:27;;;;;;;9.43;7.18;;;;;;;24.76;74.53;99812.44;5550291;32;33835;-54
2022/08/22 13:33:34;;;;;;;11.55;8.43;;;;;;;24.68;74.84;99802.63;5550451;32;33864;-54
2022/08/22 13:36:44;;;;;;;14.57;8.63;;;;;;;24.59;74.07;99810.44;5549573;32;33589;-54
2022/08/22 13:39:59;;;;;;;12.15;8.43;;;;;;;24.70;74.23;99807.72;5550570;32;34264;-54
2022/08/22 13:43:08;;;;;;;12.77;7.60;;;;;;;24.64;74.27;99820.25;5549798;32;34492;-54
2022/08/22 13:46:10;;;;;;;27.15;8.93;;;;;;;24.65;75.19;99821.81;5549617;32;34339;-54
2022/08/22 13:49:18;;;;;;;10.52;8.07;;;;;;;24.53;74.00;99822.97;5549800;32;34484;-54
2022/08/22 13:52:30;;;;;;;16.37;7.57;;;;;;;24.51;74.77;99834.31;5550179;32;33780;-54
2022/08/22 13:55:46;;;;;;;10.20;7.70;;;;;;;24.53;73.61;99837.44;5550286;32;34423;-54
2022/08/22 13:58:56;;;;;;;14.25;7.53;;;;;;;24.57;73.55;99842.94;5550225;32;33792;-54
2022/08/22 14:02:08;;;;;;;13.45;6.90;;;;;;;24.58;75.16;99837.06;5550144;32;34386;-54
2022/08/22 14:05:45;;;;;;;10.45;7.10;;;;;;;24.61;72.53;99838.25;5549951;32;33646;-54
2022/08/22 14:08:51;;;;;;;11.82;7.18;;;;;;;24.52;72.59;99835.09;5549963;32;33335;-54
2022/08/22 14:12:08;;;;;;;10.57;7.23;;;;;;;24.50;73.87;99834.69;5549610;32;34315;-54
2022/08/22 14:15:21;;;;;;;8.93;6.85;;;;;;;24.52;72.50;99835.88;5549928;32;33769;-54
2022/08/22 14:18:30;;;;;;;13.15;7.20;;;;;;;24.51;73.15;99825.31;5549957;32;33605;-54
2022/08/22 14:21:52;;;;;;;12.37;7.12;;;;;;;24.48;73.97;99826.09;5550173;32;33921;-54
2022/08/22 14:25:05;;;;;;;12.55;7.62;;;;;;;24.52;75.32;99830.41;5549850;32;33679;-55
2022/08/22 14:28:29;;;;;;;10.43;6.72;;;;;;;24.44;74.25;99823.34;5549333;32;33628;-54
2022/08/22 14:31:32;;;;;;;9.38;6.65;;;;;;;24.48;72.82;99804.97;5549890;32;33790;-55
2022/08/22 14:34:40;;;;;;;10.52;6.30;;;;;;;24.45;73.87;99813.16;5549101;32;34287;-54
2022/08/22 14:37:51;;;;;;;9.65;6.40;;;;;;;24.49;74.12;99809.25;5549597;32;34388;-54
2022/08/22 14:41:07;;;;;;;10.13;6.62;;;;;;;24.43;73.98;99810.81;5549920;32;33886;-54
2022/08/22 14:44:31;;;;;;;8.77;5.95;;;;;;;24.34;73.98;99805.69;5562996;32;34367;-54
2022/08/22 14:47:45;;;;;;;7.07;3.55;;;;;;;24.27;73.95;99811.13;5561561;32;33114;-54
2022/08/22 14:51:19;;;;;;;6.70;2.78;;;;;;;24.18;74.37;99815.41;5569382;32;34444;-55
2022/08/22 14:54:23;;;;;;;4.75;2.60;;;;;;;24.11;74.33;99824.38;5569414;32;34267;-54
2022/08/22 14:57:33;;;;;;;2.87;2.08;;;;;;;24.01;74.43;99825.13;5569406;32;34396;-54
2022/08/22 15:00:39;;;;;;;3.20;2.28;;;;;;;23.98;74.19;99825.87;5569293;32;34351;-54
2022/08/22 15:03:42;;;;;;;3.72;1.52;;;;;;;23.88;74.30;99827.41;5569031;32;34400;-55
2022/08/22 15:06:54;;;;;;;4.37;2.05;;;;;;;23.76;74.69;99823.03;5568658;32;33725;-54
2022/08/22 15:10:06;;;;;;;2.30;1.70;;;;;;;23.67;74.96;99812.41;5569386;32;34414;-54
2022/08/22 15:13:20;;;;;;;4.30;1.87;;;;;;;23.56;74.76;99822.50;5569046;32;34245;-54
2022/08/22 15:16:33;;;;;;;2.83;1.70;;;;;;;23.61;75.95;99815.91;5569257;32;33743;-54
2022/08/22 15:19:39;;;;;;;4.37;1.92;;;;;;;23.40;75.94;99822.78;5569252;32;34326;-54
2022/08/22 15:22:44;;;;;;;2.45;1.92;;;;;;;23.34;75.99;99820.78;5568995;32;33720;-54
2022/08/22 15:26:16;;;;;;;2.20;1.73;;;;;;;23.39;76.68;99832.16;5569194;32;33725;-54
2022/08/22 15:29:25;;;;;;;3.28;1.83;;;;;;;23.39;76.16;99834.09;5560866;31;33502;-55
2022/08/22 15:32:30;;;;;;;5.12;3.05;;;;;;;23.32;76.27;99834.84;5569072;32;33790;-55
2022/08/22 15:35:33;;;;;;;6.35;2.17;;;;;;;23.39;79.89;99834.09;5569059;32;33713;-54
2022/08/22 15:38:55;;;;;;;3.10;1.90;;;;;;;23.44;75.95;99831.00;5568927;32;33779;-54
2022/08/22 15:41:59;;;;;;;2.12;1.75;;;;;;;23.51;74.37;99831.06;5568818;32;33693;-54
2022/08/22 15:45:03;;;;;;;3.70;2.25;;;;;;;23.39;75.88;99826.69;5568270;32;34259;-54
2022/08/22 15:48:24;;;;;;;3.65;2.10;;;;;;;23.26;75.25;99832.84;5568443;32;33872;-54
2022/08/22 15:51:40;;;;;;;4.82;2.50;;;;;;;23.34;76.15;99840.69;5568504;32;34360;-54
2022/08/22 15:54:43;;;;;;;3.95;2.47;;;;;;;23.37;76.90;99852.84;5568527;32;33742;-55
2022/08/22 15:58:03;;;;;;;3.87;1.87;;;;;;;23.27;76.76;99859.78;5568742;32;33715;-54
2022/08/22 16:01:10;;;;;;;3.12;1.80;;;;;;;23.16;77.13;99864.41;5568553;32;33703;-54
2022/08/22 16:04:46;;;;;;;2.25;1.90;;;;;;;23.12;78.06;99867.09;5568466;32;34355;-54
2022/08/22 16:07:57;;;;;;;3.70;1.77;;;;;;;23.16;77.08;99859.72;5568489;32;33724;-54
2022/08/22 16:11:02;;;;;;;4.60;2.05;;;;;;;23.22;78.01;99862.91;5568434;32;34341;-54
2022/08/22 16:14:20;;;;;;;4.55;1.67;;;;;;;23.26;77.80;99862.91;5568324;32;33883;-54
2022/08/22 16:17:28;;;;;;;2.70;1.80;;;;;;;23.34;77.75;99861.78;5568243;32;34295;-54
2022/08/22 16:20:30;;;;;;;2.03;1.80;;;;;;;23.33;78.38;99863.75;5568129;32;33670;-54
2022/08/22 16:23:55;;;;;;;3.47;1.60;;;;;;;23.36;76.00;99862.22;5568043;32;33684;-54
2022/08/22 16:26:57;;;;;;;4.07;2.15;;;;;;;23.29;76.94;99859.44;5536720;31;33661;-54
2022/08/22 16:30:08;;;;;;;2.03;1.83;;;;;;;23.21;78.20;99856.66;5568071;32;33668;-54
2022/08/22 16:33:26;;;;;;;2.72;1.80;;;;;;;23.22;78.29;99860.16;5567812;32;33641;-54
2022/08/22 16:37:02;;;;;;;2.30;1.70;;;;;;;23.29;78.40;99860.22;5567871;32;34408;-54
2022/08/22 16:40:17;;;;;;;3.45;1.75;;;;;;;23.20;79.20;99860.53;5567722;32;34310;-54
2022/08/22 16:43:20;;;;;;;4.68;2.05;;;;;;;23.15;78.95;99857.38;5567594;32;33845;-54
2022/08/22 16:46:29;;;;;;;2.25;1.80;;;;;;;23.10;80.10;99849.50;5567572;32;34284;-54
2022/08/22 16:49:48;;;;;;;2.90;1.80;;;;;;;23.05;79.68;99858.06;5567576;32;33244;-54
2022/08/22 16:52:55;;;;;;;4.47;1.95;;;;;;;23.10;79.55;99857.69;5567209;32;33653;-55
2022/08/22 16:56:12;;;;;;;5.75;2.03;;;;;;;23.06;80.19;99856.87;5568151;32;34283;-54
2022/08/22 16:59:29;;;;;;;3.90;2.05;;;;;;;23.03;77.91;99860.38;5570351;32;33743;-54
2022/08/22 17:02:51;;;;;;;2.45;1.83;;;;;;;23.07;78.04;99861.19;5570472;32;33752;-55
2022/08/22 17:05:59;;;;;;;3.42;1.60;;;;;;;22.94;79.06;99860.69;5570497;32;34233;-54
2022/08/22 17:09:20;;;;;;;2.97;1.73;;;;;;;22.96;78.74;99850.16;5570362;32;33741;-55
2022/08/22 17:12:41;;;;;;;3.25;1.58;;;;;;;22.85;79.39;99858.25;5570338;32;33832;-55
2022/08/22 17:16:05;;;;;;;1.67;1.48;;;;;;;22.90;79.76;99857.88;5570254;32;33708;-54
2022/08/22 17:19:30;;;;;;;2.63;1.50;;;;;;;22.94;80.29;99877.84;5570256;32;34327;-54
2022/08/22 17:22:47;;;;;;;3.30;1.50;;;;;;;22.97;78.81;99879.84;5570273;32;34423;-54
2022/08/22 17:26:10;;;;;;;3.30;1.62;;;;;;;23.04;80.97;99887.31;5570216;32;33743;-54
2022/08/22 17:29:25;;;;;;;5.47;1.90;;;;;;;23.02;81.41;99897.09;5570166;32;34323;-54
2022/08/22 17:32:33;;;;;;;1.70;1.60;;;;;;;23.00;81.83;99899.41;5570225;32;33789;-54
2022/08/22 17:35:41;;;;;;;2.65;1.87;;;;;;;22.98;81.74;99906.03;5570127;32;33328;-55
2022/08/22 17:39:02;;;;;;;3.10;2.15;;;;;;;23.01;81.92;99907.22;5569969;32;33660;-54
2022/08/22 17:42:35;;;;;;;3.53;1.95;;;;;;;22.86;81.72;99905.47;5569983;32;33578;-54
2022/08/22 17:46:02;;;;;;;4.00;2.30;;;;;;;22.72;81.17;99906.12;5570139;32;34231;-54
2022/08/22 17:49:10;;;;;;;3.97;2.47;;;;;;;22.55;81.39;99910.22;5569788;32;33804;-54
2022/08/22 17:52:21;;;;;;;2.92;2.05;;;;;;;22.52;80.82;99911.75;5570030;32;33832;-54
2022/08/22 17:55:32;;;;;;;3.78;2.10;;;;;;;22.54;81.36;99911.38;5569895;32;33745;-54
2022/08/22 17:58:44;;;;;;;2.53;1.98;;;;;;;22.46;81.75;99912.44;5569630;32;33800;-55
2022/08/22 18:02:07;;;;;;;8.15;1.90;;;;;;;22.44;81.16;99910.06;5569878;32;33732;-54
2022/08/22 18:06:00;;;;;;;2.05;1.77;;;;;;;22.46;81.19;99915.97;5569795;32;33620;-54
2022/08/22 18:09:17;;;;;;;3.72;1.62;;;;;;;22.47;79.93;99912.06;5569651;32;33877;-55
2022/08/22 18:12:28;;;;;;;2.03;1.55;;;;;;;22.42;80.11;99912.41;5569855;32;33707;-55
2022/08/22 18:15:46;;;;;;;4.12;1.42;;;;;;;22.50;78.99;99916.00;5569724;32;34093;-54
2022/08/22 18:18:48;;;;;;;2.15;1.40;;;;;;;22.42;78.28;99906.16;5569846;32;33827;-54
2022/08/22 18:21:58;;;;;;;3.83;1.42;;;;;;;22.49;77.28;99909.75;5569586;32;34447;-55
2022/08/22 18:25:09;;;;;;;2.62;1.30;;;;;;;22.48;76.75;99901.91;5569673;32;33744;-54
2022/08/22 18:28:25;;;;;;;3.28;1.62;;;;;;;22.48;76.66;99910.91;5569516;32;34260;-54
2022/08/22 18:31:31;;;;;;;2.75;1.50;;;;;;;22.49;76.97;99915.22;5569587;32;33739;-54
2022/08/22 18:34:55;;;;;;;2.35;1.40;;;;;;;22.41;76.79;99916.28;5569486;32;33631;-54
2022/08/22 18:38:25;;;;;;;2.80;1.62;;;;;;;22.44;74.88;99921.00;5569644;32;34362;-54
2022/08/22 18:41:34;;;;;;;2.05;1.30;;;;;;;22.32;76.00;99920.44;5563441;32;33521;-54
2022/08/22 18:44:38;;;;;;;1.85;1.30;;;;;;;22.20;77.43;99927.72;5569503;32;33808;-55
2022/08/22 18:47:41;;;;;;;0.80;0.80;;;;;;;22.13;78.29;99933.06;5569421;32;33648;-54
2022/08/22 18:50:44;;;;;;;1.87;0.90;;;;;;;22.01;79.06;99931.31;5569359;32;33774;-54
2022/08/22 18:53:51;;;;;;;7.12;1.65;;;;;;;22.05;79.42;99923.19;5569410;32;33639;-55
2022/08/22 18:57:06;;;;;;;1.77;1.12;;;;;;;22.07;79.38;99929.06;5569491;32;33489;-55
2022/08/22 19:00:19;;;;;;;1.02;0.95;;;;;;;22.08;80.09;99930.63;5569427;32;33582;-54
2022/08/22 19:03:39;;;;;;;1.90;1.30;;;;;;;22.05;79.77;99934.91;5569307;32;33890;-54
2022/08/22 19:07:23;;;;;;;2.37;1.20;;;;;;;22.12;79.58;99938.88;5569396;32;34280;-55
2022/08/22 19:10:34;;;;;;;2.03;1.27;;;;;;;22.33;78.46;99939.19;5569094;32;33769;-55